Time;durP1;ratioP1;P1;durP2;ratioP2;P2;SDS_P1;SDS_P2;PMS_P1;PMS_P2;Temp;Humidity;BMP_temperature;BMP_pressure;BME280_temperature;BME280_humidity;BME280_pressure;Samples;Min_cycle;Max_cycle;Signal;HPM_P1;HPM_P2
2022/05/04 00:01:51;;;;;;;23.17;12.85;;;;;;;8.96;nan;101862.16;5040741;28;20028;-48
2022/05/04 00:04:17;;;;;;;22.75;12.68;;;;;;;8.88;nan;101867.75;5041743;28;20387;-49
2022/05/04 00:06:42;;;;;;;19.98;11.40;;;;;;;8.84;nan;101869.19;5039416;28;20549;-49
2022/05/04 00:09:08;;;;;;;21.00;13.77;;;;;;;8.78;nan;101862.81;5039662;28;20041;-48
2022/05/04 00:11:33;;;;;;;17.48;11.00;;;;;;;8.74;nan;101865.09;5040924;28;20035;-48
2022/05/04 00:13:59;;;;;;;18.08;11.75;;;;;;;8.75;nan;101866.72;5038833;28;20017;-47
2022/05/04 00:16:24;;;;;;;18.55;13.13;;;;;;;8.76;nan;101859.53;5043430;28;20033;-47
2022/05/04 00:18:50;;;;;;;24.20;14.27;;;;;;;8.60;nan;101867.97;5041911;28;20524;-47
2022/05/04 00:21:15;;;;;;;20.73;12.05;;;;;;;8.54;nan;101866.97;5040617;28;20021;-48
2022/05/04 00:23:41;;;;;;;29.42;12.07;;;;;;;8.56;nan;101872.94;5038369;28;20033;-47
2022/05/04 00:26:06;;;;;;;17.70;11.05;;;;;;;8.58;nan;101872.72;5034401;28;20107;-48
2022/05/04 00:28:32;;;;;;;23.60;12.93;;;;;;;8.56;nan;101870.25;5037145;28;20505;-48
2022/05/04 00:30:57;;;;;;;19.92;11.70;;;;;;;8.55;nan;101865.94;5041392;28;20025;-47
2022/05/04 00:33:23;;;;;;;20.75;11.52;;;;;;;8.56;nan;101870.25;5040472;28;20025;-48
2022/05/04 00:35:48;;;;;;;19.27;11.13;;;;;;;8.56;nan;101875.59;5035983;28;20422;-47
2022/05/04 00:38:14;;;;;;;22.02;12.15;;;;;;;8.54;nan;101872.31;5035231;28;20056;-47
2022/05/04 00:40:40;;;;;;;27.67;12.13;;;;;;;8.51;nan;101870.06;5041471;28;20102;-47
2022/05/04 00:43:19;;;;;;;24.08;11.05;;;;;;;8.43;nan;101870.25;5041951;28;20286;-47
2022/05/04 00:45:45;;;;;;;27.17;11.95;;;;;;;8.45;nan;101871.72;5038344;28;20029;-48
2022/05/04 00:48:10;;;;;;;26.00;11.60;;;;;;;8.43;nan;101872.94;5040239;28;20049;-48
2022/05/04 00:50:36;;;;;;;21.88;11.85;;;;;;;8.39;nan;101866.38;5037246;28;20025;-48
2022/05/04 00:53:02;;;;;;;21.15;11.65;;;;;;;8.32;nan;101871.69;5040010;28;20025;-48
2022/05/04 00:55:27;;;;;;;18.48;10.85;;;;;;;8.25;nan;101880.69;5037386;28;20033;-48
2022/05/04 01:00:37;;;;;;;22.98;11.50;;;;;;;8.07;nan;101873.31;5036208;28;20032;-47
2022/05/04 01:03:03;;;;;;;22.80;11.63;;;;;;;7.98;nan;101877.22;5040602;28;20110;-47
2022/05/04 01:05:28;;;;;;;18.92;11.55;;;;;;;7.90;nan;101872.91;5041749;28;20436;-48
2022/05/04 01:07:54;;;;;;;19.77;11.63;;;;;;;7.85;nan;101875.31;5040504;28;20086;-48
2022/05/04 01:10:20;;;;;;;22.23;12.40;;;;;;;7.83;nan;101878.19;5042688;28;20025;-47
2022/05/04 01:12:50;;;;;;;21.17;11.45;;;;;;;7.82;nan;101875.72;5039348;28;20030;-49
2022/05/04 01:15:17;;;;;;;19.65;11.63;;;;;;;7.82;nan;101875.72;5043282;28;20025;-48
2022/05/04 01:17:42;;;;;;;17.10;11.57;;;;;;;7.76;nan;101888.03;5043231;28;20048;-48
2022/05/04 01:20:09;;;;;;;22.58;11.77;;;;;;;7.63;nan;101887.19;5044213;28;20021;-47
2022/05/04 01:22:36;;;;;;;22.88;10.93;;;;;;;7.62;nan;101890.88;5040042;28;20548;-47
2022/05/04 01:25:01;;;;;;;19.05;11.05;;;;;;;7.62;nan;101889.03;5042727;28;20042;-49
2022/05/04 01:27:27;;;;;;;23.08;11.50;;;;;;;7.59;nan;101884.09;5042389;28;20033;-47
2022/05/04 01:29:52;;;;;;;17.02;11.00;;;;;;;7.55;nan;101886.34;5038127;28;20068;-48
2022/05/04 01:32:18;;;;;;;20.52;12.05;;;;;;;7.52;nan;101886.72;5042734;28;20115;-47
2022/05/04 01:34:43;;;;;;;21.40;12.10;;;;;;;7.50;nan;101891.44;5044044;28;20016;-48
2022/05/04 01:37:09;;;;;;;20.52;11.60;;;;;;;7.41;nan;101895.31;5042819;28;20060;-48
2022/05/04 01:39:35;;;;;;;23.27;13.25;;;;;;;7.40;nan;101896.34;5043679;28;20407;-48
2022/05/04 01:42:05;;;;;;;19.50;11.23;;;;;;;7.44;nan;101888.75;5044230;28;20029;-47
2022/05/04 01:44:34;;;;;;;18.45;12.35;;;;;;;7.49;nan;101880.97;5044500;28;20033;-47
2022/05/04 01:47:00;;;;;;;19.27;11.15;;;;;;;7.51;nan;101892.25;5044644;28;20029;-47
2022/05/04 01:49:27;;;;;;;19.30;12.40;;;;;;;7.50;nan;101887.94;5043783;28;20032;-47
2022/05/04 01:51:52;;;;;;;19.58;11.60;;;;;;;7.47;nan;101881.16;5042668;28;20510;-47
2022/05/04 01:54:18;;;;;;;17.83;10.55;;;;;;;7.45;nan;101885.88;5043558;28;20061;-47
2022/05/04 01:56:44;;;;;;;16.48;10.07;;;;;;;7.42;nan;101886.28;5044639;28;20151;-47
2022/05/04 01:59:09;;;;;;;14.73;9.52;;;;;;;7.41;nan;101886.50;5042254;28;20025;-49
2022/05/04 02:01:38;;;;;;;18.00;11.15;;;;;;;7.38;nan;101889.56;5044707;28;20097;-54
2022/05/04 02:04:05;;;;;;;19.25;11.18;;;;;;;7.37;nan;101882.59;5043108;28;20027;-47
2022/05/04 02:06:31;;;;;;;15.73;10.38;;;;;;;7.32;nan;101883.16;5037596;28;20056;-47
2022/05/04 02:08:58;;;;;;;15.43;10.13;;;;;;;7.30;nan;101887.88;5041420;28;20021;-47
2022/05/04 02:11:24;;;;;;;18.42;10.05;;;;;;;7.30;nan;101887.06;5041065;28;20025;-47
2022/05/04 02:13:50;;;;;;;16.13;10.38;;;;;;;7.30;nan;101887.88;5041960;28;20022;-48
2022/05/04 02:16:16;;;;;;;19.15;11.00;;;;;;;7.30;nan;101889.72;5042769;28;20059;-47
2022/05/04 02:18:42;;;;;;;19.13;11.25;;;;;;;7.33;nan;101889.31;5036808;28;20039;-47
2022/05/04 02:21:08;;;;;;;20.30;11.60;;;;;;;7.36;nan;101886.25;5039711;28;20017;-48
2022/05/04 02:23:34;;;;;;;15.02;10.65;;;;;;;7.38;nan;101881.56;5041208;28;20052;-47
2022/05/04 02:26:00;;;;;;;17.13;10.52;;;;;;;7.37;nan;101891.41;5038697;28;20167;-49
2022/05/04 02:28:25;;;;;;;16.02;10.30;;;;;;;7.34;nan;101878.44;5038566;28;20407;-48
2022/05/04 02:30:51;;;;;;;16.23;10.48;;;;;;;7.36;nan;101881.75;5039114;28;20021;-48
2022/05/04 02:33:16;;;;;;;15.82;10.52;;;;;;;7.35;nan;101884.59;5037394;28;20208;-47
2022/05/04 02:38:27;;;;;;;16.08;9.95;;;;;;;7.32;nan;101875.16;5037200;28;20036;-48
2022/05/04 02:40:52;;;;;;;16.58;10.48;;;;;;;7.30;nan;101877.22;5040448;28;20024;-50
2022/05/04 02:43:18;;;;;;;15.77;9.32;;;;;;;7.30;nan;101879.88;5040312;28;20255;-47
2022/05/04 02:45:44;;;;;;;14.95;9.30;;;;;;;7.27;nan;101877.59;5040841;28;20596;-48
2022/05/04 02:48:09;;;;;;;17.65;10.40;;;;;;;7.25;nan;101879.66;5040995;28;20489;-49
2022/05/04 02:50:36;;;;;;;18.25;9.55;;;;;;;7.24;nan;101878.84;5045872;28;20474;-48
2022/05/04 02:53:02;;;;;;;16.23;10.65;;;;;;;7.21;nan;101879.22;5039988;28;20059;-47
2022/05/04 02:55:28;;;;;;;18.65;11.80;;;;;;;7.20;nan;101871.44;5039702;28;20052;-48
2022/05/04 02:57:53;;;;;;;18.33;11.23;;;;;;;7.19;nan;101869.78;5038719;28;20474;-48
2022/05/04 03:00:19;;;;;;;17.50;10.93;;;;;;;7.19;nan;101869.78;5037027;28;20021;-47
2022/05/04 03:02:45;;;;;;;17.52;11.73;;;;;;;7.18;nan;101874.31;5040168;28;20052;-48
2022/05/04 03:05:12;;;;;;;20.27;11.27;;;;;;;7.16;nan;101875.50;5037256;28;20030;-49
2022/05/04 03:07:38;;;;;;;17.95;11.77;;;;;;;7.09;nan;101882.66;5039767;28;20506;-47
2022/05/04 03:10:04;;;;;;;19.38;11.60;;;;;;;7.07;nan;101876.69;5043230;28;20025;-48
2022/05/04 03:12:30;;;;;;;24.85;13.73;;;;;;;6.94;nan;101880.09;5039369;28;20025;-47
2022/05/04 03:14:56;;;;;;;19.48;12.00;;;;;;;6.91;nan;101880.50;5042358;28;20033;-48
2022/05/04 03:17:22;;;;;;;19.95;12.02;;;;;;;6.91;nan;101876.00;5043172;28;20029;-49
2022/05/04 03:19:48;;;;;;;21.77;12.00;;;;;;;6.92;nan;101876.81;5040332;28;20020;-48
2022/05/04 03:22:14;;;;;;;18.40;12.15;;;;;;;6.92;nan;101885.63;5044456;28;20587;-49
2022/05/04 03:24:40;;;;;;;21.83;12.30;;;;;;;6.92;nan;101884.81;5041431;28;20029;-48
2022/05/04 03:27:07;;;;;;;18.88;11.93;;;;;;;6.94;nan;101877.44;5039897;28;20321;-48
2022/05/04 03:29:33;;;;;;;20.55;11.40;;;;;;;6.95;nan;101890.56;5042544;28;20643;-48
2022/05/04 03:31:58;;;;;;;17.10;11.07;;;;;;;6.98;nan;101892.00;5040476;28;20032;-48
2022/05/04 03:34:24;;;;;;;20.58;11.98;;;;;;;7.02;nan;101890.63;5039641;28;20638;-48
2022/05/04 03:36:50;;;;;;;19.20;11.02;;;;;;;7.04;nan;101891.25;5042202;28;20554;-49
2022/05/04 03:39:15;;;;;;;22.90;11.63;;;;;;;7.01;nan;101891.63;5042954;28;20043;-47
2022/05/04 03:41:41;;;;;;;18.65;10.23;;;;;;;7.00;nan;101897.13;5045223;28;20033;-47
2022/05/04 03:44:07;;;;;;;23.27;12.13;;;;;;;7.00;nan;101894.47;5045158;28;20117;-48
2022/05/04 03:46:50;;;;;;;22.05;12.00;;;;;;;6.95;nan;101890.56;5040286;28;20604;-48
2022/05/04 03:49:19;;;;;;;18.88;12.25;;;;;;;6.95;nan;101890.56;5044660;28;20048;-48
2022/05/04 03:51:44;;;;;;;21.52;12.85;;;;;;;6.93;nan;101895.25;5041324;28;20250;-48
2022/05/04 03:54:11;;;;;;;25.88;13.13;;;;;;;6.85;nan;101900.75;5041410;28;20119;-47
2022/05/04 03:56:37;;;;;;;24.83;13.70;;;;;;;6.75;nan;101899.44;5040946;28;20024;-47
2022/05/04 03:59:04;;;;;;;28.48;14.38;;;;;;;6.79;nan;101898.84;5044238;28;20032;-50
2022/05/04 04:01:30;;;;;;;36.90;14.48;;;;;;;6.89;nan;101894.03;5042650;28;20029;-48
2022/05/04 04:03:56;;;;;;;20.30;13.10;;;;;;;6.97;nan;101893.84;5044928;28;20445;-49
2022/05/04 04:06:22;;;;;;;23.20;12.38;;;;;;;7.07;nan;101903.34;5042562;28;20094;-47
2022/05/04 04:08:51;;;;;;;20.17;13.00;;;;;;;7.13;nan;101902.53;5044292;28;20517;-48
2022/05/04 04:11:18;;;;;;;20.52;11.80;;;;;;;7.19;nan;101899.13;5042483;28;20028;-49
2022/05/04 04:13:44;;;;;;;18.63;12.07;;;;;;;7.25;nan;101909.81;5041396;28;20166;-48
2022/05/04 04:16:09;;;;;;;21.55;12.32;;;;;;;7.32;nan;101901.81;5039337;28;20437;-47
2022/05/04 04:18:35;;;;;;;17.80;11.50;;;;;;;7.37;nan;101899.41;5042949;28;20501;-47
2022/05/04 04:23:45;;;;;;;19.93;12.07;;;;;;;7.47;nan;101907.84;5038348;28;20106;-47
2022/05/04 04:26:11;;;;;;;19.67;11.52;;;;;;;7.55;nan;101914.88;5038885;28;20504;-48
2022/05/04 04:28:40;;;;;;;22.38;13.70;;;;;;;7.52;nan;101920.56;5045921;28;20023;-47
2022/05/04 04:31:10;;;;;;;17.65;12.00;;;;;;;7.52;nan;101924.06;5041786;28;20025;-49
2022/05/04 04:33:36;;;;;;;18.38;11.88;;;;;;;7.56;nan;101919.16;5041992;28;20020;-47
2022/05/04 04:36:03;;;;;;;21.70;12.07;;;;;;;7.60;nan;101912.41;5040762;28;20044;-47
2022/05/04 04:38:29;;;;;;;23.35;13.70;;;;;;;7.66;nan;101919.59;5048303;28;20036;-48
2022/05/04 04:40:55;;;;;;;21.10;13.65;;;;;;;7.71;nan;101921.66;5043952;28;20202;-48
2022/05/04 04:43:21;;;;;;;21.90;12.82;;;;;;;7.82;nan;101918.41;5047495;28;20021;-48
2022/05/04 04:45:48;;;;;;;18.92;11.43;;;;;;;7.90;nan;101926.25;5048440;28;20449;-47
2022/05/04 04:48:18;;;;;;;19.52;11.35;;;;;;;7.99;nan;101929.56;5044558;28;20251;-47
2022/05/04 04:50:45;;;;;;;21.00;11.82;;;;;;;8.06;nan;101920.53;5045787;28;20024;-47
2022/05/04 04:53:11;;;;;;;26.52;13.18;;;;;;;8.16;nan;101926.31;5045529;28;20337;-48
2022/05/04 04:55:36;;;;;;;33.97;14.05;;;;;;;8.23;nan;101928.16;5048111;28;20029;-47
2022/05/04 04:58:02;;;;;;;29.85;12.73;;;;;;;8.29;nan;101932.69;5043976;28;20027;-47
2022/05/04 05:00:28;;;;;;;31.00;12.60;;;;;;;8.33;nan;101925.91;5041778;28;20033;-48
2022/05/04 05:02:54;;;;;;;22.50;12.30;;;;;;;8.39;nan;101931.28;5045123;28;20103;-47
2022/05/04 05:05:19;;;;;;;20.70;12.63;;;;;;;8.44;nan;101931.50;5042918;28;20082;-47
2022/05/04 05:07:45;;;;;;;20.10;13.23;;;;;;;8.47;nan;101930.28;5043665;28;20120;-47
2022/05/04 05:10:11;;;;;;;20.40;12.07;;;;;;;8.52;nan;101929.66;5041520;28;20037;-47
2022/05/04 05:12:36;;;;;;;31.65;13.55;;;;;;;8.58;nan;101929.63;5045780;28;20046;-47
2022/05/04 05:17:46;;;;;;;22.15;12.55;;;;;;;8.72;nan;101930.47;5043198;28;20102;-47
2022/05/04 05:20:12;;;;;;;19.33;12.43;;;;;;;8.82;nan;101930.06;5040519;28;20021;-47
2022/05/04 05:22:38;;;;;;;20.50;12.10;;;;;;;8.90;nan;101927.97;5042130;28;20036;-47
2022/05/04 05:25:04;;;;;;;20.85;11.95;;;;;;;8.99;nan;101937.44;5040563;28;20070;-47
2022/05/04 05:27:30;;;;;;;19.90;12.30;;;;;;;9.07;nan;101933.69;5045547;28;20071;-48
2022/05/04 05:29:56;;;;;;;20.05;11.93;;;;;;;9.13;nan;101934.72;5047171;28;20036;-47
2022/05/04 05:32:21;;;;;;;19.27;12.23;;;;;;;9.19;nan;101934.72;5048219;28;20029;-47
2022/05/04 05:34:47;;;;;;;22.00;10.60;;;;;;;9.27;nan;101934.47;5049933;28;20017;-48
2022/05/04 05:37:13;;;;;;;24.02;11.48;;;;;;;9.36;nan;101927.88;5042723;28;20095;-48
2022/05/04 05:39:39;;;;;;;21.02;10.70;;;;;;;9.48;nan;101929.88;5045703;28;20492;-47
2022/05/04 05:42:05;;;;;;;19.85;10.30;;;;;;;9.57;nan;101933.97;5040736;28;20034;-48
2022/05/04 05:44:31;;;;;;;21.05;11.02;;;;;;;9.65;nan;101931.03;5045883;28;20682;-48
2022/05/04 05:46:57;;;;;;;19.60;10.82;;;;;;;9.76;nan;101935.72;5048663;28;20497;-48
2022/05/04 05:49:22;;;;;;;20.45;11.75;;;;;;;9.85;nan;101936.28;5039604;28;20491;-48
2022/05/04 05:51:48;;;;;;;18.05;10.65;;;;;;;9.96;nan;101932.94;5045905;28;20075;-48
2022/05/04 05:54:14;;;;;;;16.45;10.50;;;;;;;10.07;nan;101940.31;5038075;28;20024;-49
2022/05/04 05:56:39;;;;;;;20.88;10.75;;;;;;;10.16;nan;101927.47;5041725;28;20032;-48
2022/05/04 05:59:05;;;;;;;19.50;10.57;;;;;;;10.25;nan;101937.75;5037336;28;20247;-48
2022/05/04 06:01:31;;;;;;;17.10;10.70;;;;;;;10.36;nan;101938.88;5045684;28;20090;-48
2022/05/04 06:03:56;;;;;;;18.35;10.05;;;;;;;10.51;nan;101934.03;5047080;28;20029;-48
2022/05/04 06:06:22;;;;;;;22.25;10.45;;;;;;;10.64;nan;101932.28;5046405;28;20423;-48
2022/05/04 06:08:47;;;;;;;22.42;9.77;;;;;;;10.76;nan;101934.00;5042746;28;20029;-47
2022/05/04 06:11:13;;;;;;;26.02;11.43;;;;;;;10.82;nan;101932.31;5053033;28;20020;-49
2022/05/04 06:13:38;;;;;;;18.30;11.05;;;;;;;10.89;nan;101935.75;5044866;28;20407;-49
2022/05/04 06:16:04;;;;;;;21.20;10.90;;;;;;;10.96;nan;101938.38;5046757;28;20082;-47
2022/05/04 06:18:30;;;;;;;19.73;10.13;;;;;;;11.00;nan;101940.41;5046875;28;20115;-50
2022/05/04 06:20:55;;;;;;;20.08;9.18;;;;;;;11.01;nan;101942.03;5045701;28;20464;-49
2022/05/04 06:23:21;;;;;;;27.67;9.13;;;;;;;10.98;nan;101934.44;5046174;28;20098;-47
2022/05/04 06:25:46;;;;;;;25.77;10.55;;;;;;;10.94;nan;101943.13;5044794;28;20029;-47
2022/05/04 06:28:13;;;;;;;16.40;9.25;;;;;;;10.91;nan;101949.75;5045805;28;20032;-50
2022/05/04 06:34:24;;;;;;;13.30;8.65;;;;;;;10.96;nan;101947.25;5045945;28;20144;-47
2022/05/04 06:36:17;;;;;;;20.17;9.07;;;;;;;11.05;nan;101948.59;5029921;28;20029;-48
2022/05/04 06:38:43;;;;;;;21.20;9.52;;;;;;;11.25;nan;101947.56;5039438;28;20082;-48
2022/05/04 06:41:08;;;;;;;14.50;8.95;;;;;;;11.46;nan;101941.75;5043293;28;20184;-50
2022/05/04 06:43:35;;;;;;;14.88;8.15;;;;;;;11.67;nan;101948.50;5045785;28;20063;-47
2022/05/04 06:46:01;;;;;;;15.60;9.32;;;;;;;11.80;nan;101951.88;5045002;28;20394;-47
2022/05/04 06:48:27;;;;;;;17.20;9.57;;;;;;;11.97;nan;101954.75;5044115;28;20086;-49
2022/05/04 06:50:52;;;;;;;20.65;9.35;;;;;;;12.17;nan;101953.66;5037940;28;20029;-48
2022/05/04 06:53:18;;;;;;;17.30;9.15;;;;;;;12.32;nan;101960.22;5042666;28;20086;-50
2022/05/04 06:55:43;;;;;;;23.20;8.57;;;;;;;12.49;nan;101938.88;5042235;28;20025;-49
2022/05/04 06:58:09;;;;;;;20.23;7.45;;;;;;;12.65;nan;101942.75;5040444;28;20116;-48
2022/05/04 07:00:35;;;;;;;16.73;7.45;;;;;;;12.80;nan;101943.13;5040735;28;20099;-48
2022/05/04 07:03:00;;;;;;;10.38;6.78;;;;;;;12.91;nan;101941.47;5046133;28;20239;-48
2022/05/04 07:05:26;;;;;;;9.65;6.32;;;;;;;12.99;nan;101944.66;5043362;28;20465;-48
2022/05/04 07:07:53;;;;;;;10.18;6.43;;;;;;;13.11;nan;101949.22;5043241;28;20069;-50
2022/05/04 07:10:18;;;;;;;12.52;6.90;;;;;;;13.26;nan;101944.16;5038304;28;20111;-47
2022/05/04 07:12:44;;;;;;;9.60;6.43;;;;;;;13.40;nan;101947.41;5046026;28;20120;-49
2022/05/04 07:15:10;;;;;;;7.68;5.75;;;;;;;13.54;nan;101946.91;5037772;28;20053;-48
2022/05/04 07:17:36;;;;;;;9.35;5.95;;;;;;;13.69;nan;101945.59;5039662;28;20521;-48
2022/05/04 07:20:03;;;;;;;9.75;6.00;;;;;;;13.85;nan;101944.84;5046730;28;20022;-50
2022/05/04 07:22:28;;;;;;;11.63;6.63;;;;;;;13.95;nan;101941.50;5042594;28;20044;-48
2022/05/04 07:24:54;;;;;;;11.90;6.40;;;;;;;14.07;nan;101945.78;5036306;28;20525;-48
2022/05/04 07:27:20;;;;;;;9.27;5.90;;;;;;;14.20;nan;101940.09;5033779;28;20375;-48
2022/05/04 07:29:46;;;;;;;9.93;5.82;;;;;;;14.30;nan;101947.53;5040833;28;20029;-47
2022/05/04 07:32:13;;;;;;;14.35;5.97;;;;;;;14.39;nan;101943.38;5045993;28;20056;-48
2022/05/04 07:34:38;;;;;;;7.65;6.10;;;;;;;14.51;nan;101941.44;5040526;28;20035;-49
2022/05/04 07:37:04;;;;;;;9.90;5.97;;;;;;;14.69;nan;101943.06;5038413;28;20032;-47
2022/05/04 07:42:21;;;;;;;9.55;6.18;;;;;;;14.83;nan;101938.16;5039365;28;20091;-47
2022/05/04 07:44:51;;;;;;;9.27;5.53;;;;;;;14.91;nan;101931.53;5040407;28;20032;-47
2022/05/04 07:47:17;;;;;;;9.43;6.03;;;;;;;14.97;nan;101938.63;5046748;28;20478;-47
2022/05/04 07:49:43;;;;;;;9.23;5.53;;;;;;;15.07;nan;101938.75;5038387;28;20114;-46
2022/05/04 07:52:08;;;;;;;7.90;5.70;;;;;;;15.18;nan;101934.31;5043349;28;20574;-46
2022/05/04 07:54:34;;;;;;;8.57;5.32;;;;;;;15.25;nan;101932.25;5040591;28;20028;-47
2022/05/04 07:56:59;;;;;;;9.00;6.20;;;;;;;15.38;nan;101932.69;5039920;28;20028;-47
2022/05/04 07:59:25;;;;;;;8.32;5.25;;;;;;;15.53;nan;101931.25;5039419;28;20017;-47
2022/05/04 08:04:35;;;;;;;6.78;4.70;;;;;;;15.68;nan;101943.09;5033313;28;20326;-52
2022/05/04 08:07:01;;;;;;;7.03;5.05;;;;;;;15.71;nan;101939.06;5033072;28;20577;-51
2022/05/04 08:09:26;;;;;;;6.38;4.38;;;;;;;15.90;nan;101943.06;5037690;28;20497;-49
2022/05/04 08:11:52;;;;;;;7.30;4.43;;;;;;;16.09;nan;101940.00;5040020;28;20033;-47
2022/05/04 08:14:19;;;;;;;6.75;4.32;;;;;;;16.23;nan;101943.91;5024330;28;20017;-49
2022/05/04 08:16:45;;;;;;;11.70;4.40;;;;;;;16.39;nan;101937.56;5025045;28;20037;-54
2022/05/04 08:19:11;;;;;;;9.80;4.85;;;;;;;16.45;nan;101933.81;5007061;28;20021;-50
2022/05/04 08:21:37;;;;;;;6.40;4.25;;;;;;;16.45;nan;101943.84;5023290;28;20150;-52
2022/05/04 08:24:03;;;;;;;5.82;3.78;;;;;;;16.52;nan;101937.16;5025542;28;20591;-49
2022/05/04 08:26:29;;;;;;;7.95;5.00;;;;;;;16.60;nan;101942.06;5024939;28;20119;-51
2022/05/04 08:28:55;;;;;;;6.25;4.47;;;;;;;16.78;nan;101930.03;5023228;28;20101;-51
2022/05/04 08:31:21;;;;;;;8.60;4.32;;;;;;;16.97;nan;101925.03;5025034;28;20112;-50
2022/05/04 08:33:48;;;;;;;10.82;4.80;;;;;;;17.13;nan;101932.16;5024024;28;20036;-51
2022/05/04 08:36:14;;;;;;;6.40;3.63;;;;;;;17.38;nan;101928.72;5024584;28;20510;-48
2022/05/04 08:38:39;;;;;;;25.25;5.60;;;;;;;17.46;nan;101930.13;5021800;28;20124;-51
2022/05/04 08:41:06;;;;;;;7.28;4.65;;;;;;;17.44;nan;101929.59;5023114;28;20027;-48
2022/05/04 08:43:32;;;;;;;5.32;3.78;;;;;;;17.58;nan;101929.88;5022696;28;20033;-47
2022/05/04 08:46:01;;;;;;;6.95;4.57;;;;;;;17.73;nan;101927.25;5020525;28;20091;-48
2022/05/04 08:48:27;;;;;;;6.35;3.88;;;;;;;17.78;nan;101919.97;5020686;28;20581;-47
2022/05/04 08:50:54;;;;;;;7.72;4.45;;;;;;;17.96;nan;101921.38;5019780;28;20022;-47
2022/05/04 08:53:20;;;;;;;5.32;4.10;;;;;;;18.02;nan;101925.69;5021600;28;20032;-51
2022/05/04 08:55:46;;;;;;;6.85;4.75;;;;;;;18.19;nan;101920.03;5020176;28;20108;-51
2022/05/04 08:58:12;;;;;;;6.28;4.20;;;;;;;18.14;nan;101909.19;5021860;28;20030;-50
2022/05/04 09:00:38;;;;;;;6.85;4.25;;;;;;;18.41;nan;101917.03;5023844;28;20032;-49
2022/05/04 09:03:06;;;;;;;10.75;3.85;;;;;;;18.49;nan;101899.38;5020916;28;20036;-50
2022/05/04 09:05:39;;;;;;;5.60;3.95;;;;;;;18.32;nan;101913.25;5023652;28;20433;-47
2022/05/04 09:08:05;;;;;;;6.60;3.75;;;;;;;18.38;nan;101912.97;5024192;28;20052;-51
2022/05/04 09:10:36;;;;;;;4.43;3.75;;;;;;;18.31;nan;101911.59;5023780;28;20029;-47
2022/05/04 09:13:03;;;;;;;6.05;3.53;;;;;;;18.39;nan;101902.94;5024314;28;20032;-49
2022/05/04 09:15:31;;;;;;;4.68;3.28;;;;;;;18.23;nan;101904.81;5023621;28;20052;-49
2022/05/04 09:18:03;;;;;;;4.88;3.20;;;;;;;18.01;nan;101898.84;5024880;28;20391;-50
2022/05/04 09:20:47;;;;;;;5.22;2.83;;;;;;;18.05;nan;101899.94;5024464;28;20165;-49
2022/05/04 09:23:30;;;;;;;8.10;3.00;;;;;;;18.37;nan;101895.06;5024397;28;20479;-48
2022/05/04 09:25:58;;;;;;;4.22;2.90;;;;;;;18.52;nan;101902.38;5026747;28;20245;-48
2022/05/04 09:28:26;;;;;;;3.42;2.55;;;;;;;18.50;nan;101887.47;5028800;28;20017;-51
2022/05/04 09:30:54;;;;;;;7.30;3.10;;;;;;;18.51;nan;101886.38;5027759;28;20108;-49
2022/05/04 09:33:26;;;;;;;3.92;2.75;;;;;;;18.59;nan;101892.03;5028897;28;20063;-48
2022/05/04 09:35:52;;;;;;;3.42;2.58;;;;;;;18.69;nan;101885.84;5027097;28;20036;-52
2022/05/04 09:46:53;;;;;;;7.10;3.05;;;;;;;19.49;nan;101888.50;5025072;28;20040;-47
2022/05/04 09:49:20;;;;;;;4.25;3.00;;;;;;;19.66;nan;101878.13;5024688;28;20026;-54
2022/05/04 09:51:53;;;;;;;4.55;3.30;;;;;;;19.81;nan;101890.81;5024465;28;20049;-52
2022/05/04 09:54:30;;;;;;;5.25;3.58;;;;;;;19.60;nan;101890.13;5026947;28;20030;-51
2022/05/04 09:56:57;;;;;;;5.88;3.60;;;;;;;19.53;nan;101887.66;5023581;28;20044;-53
2022/05/04 09:59:25;;;;;;;7.47;3.20;;;;;;;19.59;nan;101886.59;5024229;28;20025;-47
2022/05/04 10:01:52;;;;;;;9.30;3.50;;;;;;;19.64;nan;101879.50;5027758;28;20029;-49
2022/05/04 10:04:20;;;;;;;11.55;2.72;;;;;;;19.71;nan;101882.69;5024788;28;20394;-52
2022/05/04 10:06:47;;;;;;;3.58;2.63;;;;;;;19.94;nan;101886.66;5027290;28;20034;-47
2022/05/04 10:09:13;;;;;;;5.32;2.75;;;;;;;20.06;nan;101881.63;5025456;28;20033;-50
2022/05/04 10:11:39;;;;;;;4.75;2.60;;;;;;;20.33;nan;101883.88;5027271;28;20433;-48
2022/05/04 10:14:10;;;;;;;7.15;2.70;;;;;;;20.43;nan;101881.88;5027725;28;20410;-49
2022/05/04 10:17:03;;;;;;;3.55;2.53;;;;;;;20.08;nan;101882.97;5005863;28;20310;-50
2022/05/04 10:19:38;;;;;;;6.53;3.42;;;;;;;19.91;nan;101879.84;4988706;28;20424;-50
2022/05/04 10:22:08;;;;;;;7.03;2.78;;;;;;;19.82;nan;101870.66;5027243;28;20445;-50
2022/05/04 10:24:35;;;;;;;5.32;2.70;;;;;;;19.65;nan;101881.94;5024053;28;20026;-49
2022/05/04 10:27:14;;;;;;;5.43;3.08;;;;;;;19.54;nan;101872.19;5026390;28;20104;-50
2022/05/04 10:32:49;;;;;;;7.85;3.50;;;;;;;19.87;nan;101873.34;5027491;28;20036;-50
2022/05/04 10:35:40;;;;;;;7.47;3.30;;;;;;;20.30;nan;101874.38;5024882;28;20029;-48
2022/05/04 10:38:21;;;;;;;5.68;3.17;;;;;;;20.48;nan;101872.88;5026450;28;20421;-50
2022/05/04 10:40:54;;;;;;;4.72;2.95;;;;;;;20.39;nan;101872.63;5026631;28;20025;-49
2022/05/04 10:43:37;;;;;;;3.92;2.65;;;;;;;20.79;nan;101863.25;5019205;28;20514;-49
2022/05/04 10:46:11;;;;;;;5.93;3.30;;;;;;;20.90;nan;101868.59;5018403;28;20057;-53
2022/05/04 10:48:42;;;;;;;3.80;3.25;;;;;;;21.02;nan;101866.28;5022448;28;20032;-47
2022/05/04 10:51:19;;;;;;;4.68;2.90;;;;;;;21.12;nan;101866.97;5014357;28;20052;-51
2022/05/04 10:54:10;;;;;;;9.23;3.35;;;;;;;21.27;nan;101863.28;5018624;28;20055;-53
2022/05/04 10:56:37;;;;;;;4.22;3.67;;;;;;;21.43;nan;101863.88;5021686;28;20072;-51
2022/05/04 10:59:03;;;;;;;3.38;3.05;;;;;;;21.55;nan;101868.91;5016484;28;20082;-50
2022/05/04 11:01:34;;;;;;;6.75;3.45;;;;;;;21.45;nan;101861.66;5022080;28;20209;-51
2022/05/04 11:04:04;;;;;;;5.78;3.30;;;;;;;20.96;nan;101868.25;5017263;28;20025;-52
2022/05/04 11:06:33;;;;;;;4.05;3.60;;;;;;;20.93;nan;101859.84;5016315;28;20025;-50
2022/05/04 11:09:09;;;;;;;6.25;3.35;;;;;;;20.90;nan;101863.16;5018829;28;20124;-51
2022/05/04 11:11:36;;;;;;;3.92;3.53;;;;;;;20.88;nan;101859.91;5013888;28;20475;-50
2022/05/04 11:14:04;;;;;;;7.10;3.30;;;;;;;20.83;nan;101857.25;5017380;28;20033;-51
2022/05/04 11:16:30;;;;;;;3.63;3.25;;;;;;;20.66;nan;101858.53;5015923;28;20120;-49
2022/05/04 11:18:58;;;;;;;8.13;3.70;;;;;;;20.29;nan;101869.19;5022607;28;20029;-48
2022/05/04 11:21:26;;;;;;;5.60;3.28;;;;;;;20.25;nan;101868.16;5022854;28;20021;-50
2022/05/04 11:23:53;;;;;;;4.82;3.15;;;;;;;20.48;nan;101867.44;5016880;28;20487;-51
2022/05/04 11:26:33;;;;;;;5.65;3.28;;;;;;;20.72;nan;101854.63;5022653;28;20037;-51
2022/05/04 11:28:59;;;;;;;7.15;3.58;;;;;;;20.78;nan;101856.19;5021175;28;20506;-48
2022/05/04 11:31:24;;;;;;;5.07;3.00;;;;;;;20.66;nan;101863.97;5019931;28;20446;-48
2022/05/04 11:33:50;;;;;;;5.68;3.22;;;;;;;20.68;nan;101866.41;5022096;28;20017;-50
2022/05/04 11:36:21;;;;;;;5.93;3.13;;;;;;;20.72;nan;101857.38;5024416;28;20048;-50
2022/05/04 11:38:47;;;;;;;5.45;3.28;;;;;;;20.60;nan;101859.66;5023016;28;20025;-51
2022/05/04 11:41:14;;;;;;;11.20;3.42;;;;;;;20.40;nan;101860.66;5025677;28;20112;-48
2022/05/04 11:43:40;;;;;;;5.22;3.55;;;;;;;20.39;nan;101864.47;5023949;28;20032;-49
2022/05/04 11:46:09;;;;;;;5.78;3.35;;;;;;;20.36;nan;101861.53;5018064;28;20025;-48
2022/05/04 11:48:42;;;;;;;6.45;3.53;;;;;;;20.52;nan;101850.22;5020953;28;20371;-49
2022/05/04 11:51:13;;;;;;;4.65;3.42;;;;;;;20.94;nan;101853.31;5021099;28;20032;-49
2022/05/04 11:53:39;;;;;;;5.97;3.22;;;;;;;21.24;nan;101858.41;5021498;28;20037;-53
2022/05/04 11:56:06;;;;;;;4.28;3.40;;;;;;;21.53;nan;101849.28;5021011;28;20029;-50
2022/05/04 11:58:34;;;;;;;3.90;2.85;;;;;;;21.60;nan;101852.47;5021383;28;20053;-51
2022/05/04 12:01:01;;;;;;;5.70;3.15;;;;;;;21.60;nan;101849.72;5022015;28;20030;-51
2022/05/04 12:03:30;;;;;;;5.85;3.08;;;;;;;21.51;nan;101849.56;5018325;28;20270;-49
2022/05/04 12:05:57;;;;;;;4.95;3.25;;;;;;;21.24;nan;101842.06;5018243;28;21017;-51
2022/05/04 12:08:23;;;;;;;10.52;3.63;;;;;;;21.28;nan;101848.53;5024680;28;20041;-51